TAF Text Data
IDs:
Format:
Raw Decoded Include METAR

Data at: 2116 UTC 15 Oct 2018

KROW 152051Z 02009KT 10SM OVC050 06/M04 A3035 RMK AO2 SLP268 T00611044 56022

KROW 151724Z 1518/1618 01011G19KT P6SM BKN035 OVC050
  TEMPO 1518/1522 BKN030
  FM160000 36007KT P6SM OVC050
  FM161300 36010KT P6SM OVC040